createdAt,value
2023-03-23T15:58:58.338Z,97968.72
2023-03-23T16:01:08.480Z,97975.22
2023-03-23T16:03:17.747Z,97965.03
2023-03-23T16:05:21.593Z,97966.69
2023-03-23T16:07:28.723Z,97967.97
2023-03-23T16:09:33.170Z,97955.75
2023-03-23T16:11:37.733Z,97972.63
2023-03-23T16:13:43.142Z,97957.13
2023-03-23T16:15:49.505Z,97949.78
2023-03-23T16:17:54.137Z,97961.81
2023-03-23T16:19:58.617Z,97964.56
2023-03-23T16:22:03.165Z,97959.72
2023-03-23T16:24:10.238Z,97955.44
2023-03-23T16:26:14.693Z,97975.03
2023-03-23T16:28:20.933Z,97971.53
2023-03-23T16:30:27.898Z,97969.84
2023-03-23T16:34:37.324Z,97964.34
2023-03-23T16:36:42.386Z,97966.91
2023-03-23T16:38:49.813Z,97953.38
2023-03-23T16:40:58.308Z,97945.91
2023-03-23T16:43:08.246Z,97948.75
2023-03-23T16:45:13.875Z,97946.41
2023-03-23T16:47:19.299Z,97942.84
2023-03-23T16:49:24.803Z,97924.84
2023-03-23T16:51:28.492Z,97935.75
2023-03-23T16:53:34.219Z,97938.88
2023-03-23T16:55:39.285Z,97930.63
2023-03-23T16:57:45.736Z,97940.94
2023-03-23T16:59:49.829Z,97944.50
2023-03-23T17:01:54.641Z,97947.03
2023-03-23T17:04:00.573Z,97949.56
2023-03-23T17:06:06.378Z,97959.06
2023-03-23T17:08:11.035Z,97946.97
2023-03-23T17:10:16.351Z,97942.53
2023-03-23T17:12:20.280Z,97956.78
2023-03-23T17:14:26.396Z,97954.50
2023-03-23T17:16:30.789Z,97955.31
2023-03-23T17:18:34.336Z,97946.16
2023-03-23T17:20:41.909Z,97953.25
2023-03-23T17:22:50.109Z,97942.28
2023-03-23T17:24:54.895Z,97947.88
2023-03-23T17:26:59.906Z,97941.78
2023-03-23T17:29:04.389Z,97935.91
2023-03-23T17:31:09.681Z,97940.25
2023-03-23T17:33:14.498Z,97936.50
2023-03-23T17:35:18.821Z,97943.50
2023-03-23T17:37:23.831Z,97947.69
2023-03-23T17:39:28.555Z,97953.34
2023-03-23T17:41:32.408Z,97938.13
2023-03-23T17:43:37.384Z,97928.25
2023-03-23T17:45:45.064Z,97931.91
2023-03-23T17:47:53.918Z,97937.38
2023-03-23T17:49:59.024Z,97930.59
2023-03-23T17:52:03.783Z,97950.31
2023-03-23T17:54:08.762Z,97927.47
2023-03-23T17:56:12.375Z,97931.28
2023-03-23T17:58:16.938Z,97919.03
2023-03-23T18:00:22.233Z,97918.44
2023-03-23T18:02:25.929Z,97928.72
2023-03-23T18:04:31.385Z,97911.88
2023-03-23T18:06:34.941Z,97902.47
2023-03-23T18:08:39.407Z,97900.53
2023-03-23T18:10:43.203Z,97914.94
2023-03-23T18:12:47.252Z,97909.34
2023-03-23T18:14:51.161Z,97909.00
2023-03-23T18:16:55.830Z,97904.06
2023-03-23T18:18:59.687Z,97893.84
2023-03-23T18:21:08.710Z,97887.22
2023-03-23T18:23:12.350Z,97900.28
2023-03-23T18:25:16.459Z,97887.38
2023-03-23T18:27:20.767Z,97899.28
2023-03-23T18:29:25.231Z,97893.53
2023-03-23T18:31:29.370Z,97897.53
2023-03-23T18:33:32.738Z,97889.91
2023-03-23T18:35:36.982Z,97903.47
2023-03-23T18:37:43.870Z,97899.69
2023-03-23T18:39:47.905Z,97899.19
2023-03-23T18:41:51.897Z,97902.19
2023-03-23T18:43:57.706Z,97894.75
2023-03-23T18:46:02.023Z,97900.53
2023-03-23T18:48:06.359Z,97893.28
2023-03-23T18:50:12.468Z,97910.50
2023-03-23T18:52:16.840Z,97905.38
2023-03-23T18:54:22.115Z,97907.50
2023-03-23T18:56:26.879Z,97918.25
2023-03-23T18:58:30.562Z,97924.53
2023-03-23T19:00:34.917Z,97922.75
2023-03-23T19:02:40.227Z,97927.84
2023-03-23T19:04:43.854Z,97919.94
2023-03-23T19:06:47.479Z,97936.44
2023-03-23T19:08:53.883Z,97936.28
2023-03-23T19:11:03.943Z,97941.25
2023-03-23T19:13:08.932Z,97941.72
2023-03-23T19:15:13.267Z,97940.56
2023-03-23T19:17:17.861Z,97946.53
2023-03-23T19:19:22.129Z,97935.28
2023-03-23T19:21:29.806Z,97925.69
2023-03-23T19:23:35.543Z,97925.84
2023-03-23T19:25:39.228Z,97938.59
2023-03-23T19:28:27.461Z,97943.56
2023-03-23T19:30:10.914Z,97935.28
2023-03-23T19:32:14.886Z,97932.81
2023-03-23T19:34:19.539Z,97922.41
2023-03-23T19:36:24.315Z,97922.06
2023-03-23T19:38:28.616Z,97929.66
2023-03-23T19:40:40.236Z,97934.47
2023-03-23T19:42:47.840Z,97920.56
2023-03-23T19:44:53.445Z,97925.22
2023-03-23T19:46:57.809Z,97926.38
2023-03-23T19:49:02.436Z,97928.50
2023-03-23T19:51:07.317Z,97926.19
2023-03-23T19:53:13.255Z,97932.63
2023-03-23T19:55:18.249Z,97932.97
2023-03-23T19:57:23.878Z,97948.00
2023-03-23T19:59:31.297Z,97957.06
2023-03-23T20:01:36.592Z,97963.69
2023-03-23T20:03:41.957Z,97959.88
2023-03-23T20:05:46.004Z,97970.41
2023-03-23T20:07:51.974Z,97961.16
2023-03-23T20:09:56.113Z,97958.03
2023-03-23T20:12:01.223Z,97964.75
2023-03-23T20:14:04.992Z,97969.22
2023-03-23T20:16:12.265Z,97987.66
2023-03-23T20:18:18.940Z,97970.28
2023-03-23T20:20:23.434Z,97968.75
2023-03-23T20:22:29.020Z,97970.38
2023-03-23T20:24:33.850Z,97979.03
2023-03-23T20:26:39.124Z,97988.44
2023-03-23T20:28:46.806Z,97982.78
2023-03-23T20:31:19.435Z,97972.88
2023-03-23T20:33:30.659Z,97975.28
2023-03-23T20:35:35.030Z,97989.94
2023-03-23T20:37:41.343Z,97983.31
2023-03-23T20:39:48.165Z,97975.69
2023-03-23T20:41:54.888Z,97976.97
2023-03-23T20:44:00.398Z,97979.94
2023-03-23T20:46:07.785Z,97969.53
2023-03-23T20:48:12.643Z,97988.16
2023-03-23T20:50:18.794Z,97979.72
2023-03-23T20:52:23.219Z,97988.75
2023-03-23T20:54:29.109Z,97986.28
2023-03-23T20:56:35.655Z,97994.34
2023-03-23T20:58:41.137Z,98001.59
2023-03-23T21:00:47.377Z,98002.72
2023-03-23T21:02:54.358Z,98002.88
2023-03-23T21:04:58.390Z,98006.50
2023-03-23T21:07:04.038Z,98002.19
2023-03-23T21:09:09.913Z,98012.09
2023-03-23T21:11:19.355Z,98008.59
2023-03-23T21:13:23.314Z,98021.94
2023-03-23T21:15:28.960Z,98016.00
2023-03-23T21:17:32.760Z,98016.28
2023-03-23T21:19:37.214Z,98019.09
2023-03-23T21:21:56.842Z,98025.31
2023-03-23T21:24:03.233Z,98013.81
2023-03-23T21:26:11.779Z,98019.22
2023-03-23T21:28:17.523Z,98017.56
2023-03-23T21:30:22.775Z,98019.84
2023-03-23T21:32:27.110Z,98030.41
2023-03-23T21:34:32.678Z,98032.34
2023-03-23T21:36:37.486Z,98033.47
2023-03-23T21:38:41.302Z,98035.28
2023-03-23T21:40:49.720Z,98035.44
2023-03-23T21:42:54.123Z,98033.78
2023-03-23T21:45:02.885Z,98021.56
2023-03-23T21:47:06.747Z,98037.38
2023-03-23T21:49:14.954Z,98023.53
2023-03-23T21:51:22.128Z,98021.03
2023-03-23T21:53:27.528Z,98036.03
2023-03-23T21:55:31.959Z,98041.28
2023-03-23T21:57:38.329Z,98046.72
2023-03-23T21:59:43.213Z,98066.28
2023-03-23T22:01:48.218Z,98059.50
2023-03-23T22:03:53.751Z,98052.56
2023-03-23T22:05:57.848Z,98063.25
2023-03-23T22:08:01.925Z,98060.78
2023-03-23T22:10:06.515Z,98059.97
2023-03-23T22:12:10.700Z,98046.94
2023-03-23T22:14:16.518Z,98042.63
2023-03-23T22:16:21.624Z,98045.28
2023-03-23T22:18:25.995Z,98052.50
2023-03-23T22:20:30.474Z,98056.13
2023-03-23T22:22:35.136Z,98061.38
2023-03-23T22:24:39.248Z,98045.59
2023-03-23T22:26:43.112Z,98061.38
2023-03-23T22:28:49.835Z,98042.25
2023-03-23T22:30:55.945Z,98042.25
2023-03-23T22:32:59.695Z,98052.78
2023-03-23T22:35:03.806Z,98065.00
2023-03-23T22:37:08.596Z,98060.69
2023-03-23T22:39:12.819Z,98065.97
2023-03-23T22:41:19.010Z,98066.13
2023-03-23T22:43:23.400Z,98074.16
2023-03-23T22:45:28.242Z,98081.09
2023-03-23T22:47:34.638Z,98087.34
2023-03-23T22:49:38.627Z,98072.50
2023-03-23T22:51:43.079Z,98081.38
2023-03-23T22:53:47.985Z,98094.72
2023-03-23T22:55:55.256Z,98095.56
2023-03-23T22:57:58.830Z,98093.88
2023-03-23T23:00:02.848Z,98089.44
2023-03-23T23:02:07.038Z,98075.44
2023-03-23T23:04:12.066Z,98089.44
2023-03-23T23:06:17.502Z,98088.78
2023-03-23T23:08:21.507Z,98095.00
2023-03-23T23:10:25.697Z,98095.16
2023-03-23T23:12:31.992Z,98100.56
2023-03-23T23:14:36.279Z,98094.47
2023-03-23T23:16:40.405Z,98091.16
2023-03-23T23:18:44.147Z,98105.28
2023-03-23T23:20:52.401Z,98106.25
2023-03-23T23:22:56.045Z,98088.81
2023-03-23T23:24:59.832Z,98098.50
2023-03-23T23:27:03.964Z,98101.28
2023-03-23T23:29:07.805Z,98100.63
2023-03-23T23:31:22.678Z,98089.38
2023-03-23T23:33:27.018Z,98107.81
2023-03-23T23:35:31.033Z,98106.16
2023-03-23T23:37:36.033Z,98106.16
2023-03-23T23:39:41.435Z,98109.78
2023-03-23T23:41:45.313Z,98114.22
2023-03-23T23:43:54.701Z,98109.09
2023-03-23T23:46:00.347Z,98116.03
2023-03-23T23:48:04.135Z,98115.19
2023-03-23T23:50:09.934Z,98117.81
2023-03-23T23:52:13.867Z,98122.13
2023-03-23T23:54:22.889Z,98115.06
2023-03-23T23:56:26.953Z,98131.69
2023-03-23T23:58:30.614Z,98135.13
